NWWW

Details ICAO NWWW (NOU)
Name Noumea La Tontouta
Region New Caledonia
Timezone Pacific/Noumea (UTC+11.0)
Plans Departing 109
Arriving 118
Stats Elevation 51 ft / 16 m (AMSL)
Location -22.014529° 166.213022°
Runways 1
Magnetic Variation 12.335° E
Sunrise 2017-12-15 18:07:51 UTC / 2017-12-16 05:07:51 Local
Sunset 2017-12-16 07:36:02 UTC / 2017-12-16 18:36:02 Local
Advertisement - Login to hide

Runways

ID Width Length Bearing (true) Bearing (mag) Surface Threshold Offset Overrun Length
11 148 ft / 45 m 10,666 ft / 3,251 m 121.21° 108.88° Asphalt 0 ft / 0 m 338 ft / 103 m
29 148 ft / 45 m 10,666 ft / 3,251 m 301.19° 288.86° Asphalt 0 ft / 0 m 354 ft / 108 m

Approach Navaids

Runway Type Ident Frequency Range Bearing (true) Bearing (mag) Slope Elevation
11 Localiser LT 109.90 MHz 18 nm / 33 km 120.69° 108.35° - 52 ft / 16 m (AMSL)
11 Glidescope LT 109.90 MHz 10 nm / 19 km 121.20° 108.87° 3.00° 24 ft / 7 m (AMSL)

Map

Weather


0- 5 10 15 20 25 30 35+ Temperature / ° C

Clouds and Precipitation
Forecast for 2017-12-15 18:00 UTC. Updated an hour ago

Ground ~20,000 ft ~40,000 ft Winds

METAR

NWWW 151800Z AUTO 00000KT CAVOK 22/21 Q1010 TEMPO SHRA

TAF

TAF NWWW 151100Z 1512/1612 VRB02KT 9999 SCT035 SCT050 TEMPO 1512/1608 SHRA BECMG 1522/1524 13012KT PROB40 TEMPO 1600/1606 4000 SHRA FEW020TCU
Warning: Do not use this data for real-world aviation or navigation. No guarantee of current accuracy is given.